Terminal Aerodrome Forecast
Issued by NWS

Home | Current Version | Previous Version | Text Only | Print | Product List | Glossary On
Versions: 1 2 3 4 5 6 7 8 9 10 11 12 13 14 15 16 17 18 19 20 21 22 23
000
FTUS45 KREV 061121
TAFTVL
TAF
KTVL 061121Z 0612/0712 VRB03KT P6SM FEW180
     FM061900 04007KT P6SM FEW070 SCT110
     FM062100 03007KT P6SM VCSH SCT070 BKN110
     FM070100 17006KT P6SM SCT080 BKN120
     FM070400 VRB03KT P6SM FEW080 SCT120 BKN180=

USA.gov is the U.S. government's official web portal to all federal, state and local government web resources and services.